createdAt,value
2018-07-20T00:01:50.042Z,95571.92
2018-07-20T00:04:19.641Z,95566.07
2018-07-20T00:06:49.241Z,95561.88
2018-07-20T00:09:18.690Z,95560.11
2018-07-20T00:11:48.051Z,95564.05
2018-07-20T00:14:17.503Z,95562.15
2018-07-20T00:16:46.917Z,95553.13
2018-07-20T00:19:16.345Z,95551.52
2018-07-20T00:21:45.757Z,95545.64
2018-07-20T00:24:15.153Z,95542.57
2018-07-20T00:26:44.568Z,95542.90
2018-07-20T00:29:13.948Z,95543.52
2018-07-20T00:31:43.365Z,95540.90
2018-07-20T00:34:12.857Z,95537.83
2018-07-20T00:36:42.221Z,95531.41
2018-07-20T00:39:12.122Z,95534.56
2018-07-20T00:41:41.794Z,95534.40
2018-07-20T00:44:11.153Z,95539.20
2018-07-20T00:46:40.486Z,95531.81
2018-07-20T00:49:09.892Z,95537.03
2018-07-20T00:51:39.529Z,95530.64
2018-07-20T00:54:08.884Z,95529.59
2018-07-20T00:56:38.240Z,95528.89
2018-07-20T00:59:07.868Z,95531.73
2018-07-20T01:01:37.294Z,95522.97
2018-07-20T01:04:06.684Z,95531.67
2018-07-20T01:06:36.097Z,95527.32
2018-07-20T01:09:07.706Z,95530.03
2018-07-20T01:11:37.400Z,95521.15
2018-07-20T01:14:06.831Z,95526.45
2018-07-20T01:16:36.585Z,95526.45
2018-07-20T01:19:06.037Z,95527.20
2018-07-20T01:21:35.483Z,95523.14
2018-07-20T01:24:05.773Z,95525.33
2018-07-20T01:26:35.195Z,95522.33
2018-07-20T01:29:05.313Z,95517.83
2018-07-20T01:31:34.760Z,95516.22
2018-07-20T01:34:05.229Z,95523.97
2018-07-20T01:36:34.690Z,95522.77
2018-07-20T01:39:05.390Z,95514.48
2018-07-20T01:41:34.822Z,95515.84
2018-07-20T01:44:05.047Z,95516.97
2018-07-20T01:46:34.419Z,95516.42
2018-07-20T01:49:03.923Z,95514.41
2018-07-20T01:51:33.918Z,95515.19
2018-07-20T01:54:03.340Z,95516.25
2018-07-20T01:56:32.724Z,95507.00
2018-07-20T01:59:02.143Z,95505.88
2018-07-20T02:01:31.608Z,95500.88
2018-07-20T02:04:01.075Z,95500.88
2018-07-20T02:06:30.492Z,95507.98
2018-07-20T02:08:59.871Z,95501.95
2018-07-20T02:11:29.269Z,95507.92
2018-07-20T02:13:58.780Z,95500.83
2018-07-20T02:16:28.294Z,95495.56
2018-07-20T02:18:57.799Z,95491.00
2018-07-20T02:21:27.610Z,95491.55
2018-07-20T02:23:57.047Z,95491.23
2018-07-20T02:26:26.449Z,95493.52
2018-07-20T02:28:55.871Z,95492.97
2018-07-20T02:31:25.383Z,95483.00
2018-07-20T02:33:54.758Z,95487.00
2018-07-20T02:36:24.220Z,95485.09
2018-07-20T02:38:53.590Z,95486.98
2018-07-20T02:41:23.201Z,95482.87
2018-07-20T02:43:52.625Z,95488.73
2018-07-20T02:46:22.136Z,95478.80
2018-07-20T02:48:52.363Z,95484.93
2018-07-20T02:51:21.751Z,95488.00
2018-07-20T02:53:51.097Z,95491.05
2018-07-20T02:56:20.614Z,95488.28
2018-07-20T02:58:49.959Z,95484.27
2018-07-20T03:01:20.099Z,95484.36
2018-07-20T03:03:49.455Z,95481.47
2018-07-20T03:06:18.964Z,95484.59
2018-07-20T03:08:48.334Z,95482.09
2018-07-20T03:11:17.701Z,95487.13
2018-07-20T03:13:46.881Z,95485.95
2018-07-20T03:16:16.274Z,95483.80
2018-07-20T03:18:45.691Z,95485.56
2018-07-20T03:21:15.086Z,95478.62
2018-07-20T03:23:44.443Z,95483.69
2018-07-20T03:26:13.873Z,95478.90
2018-07-20T03:28:43.254Z,95475.91
2018-07-20T03:31:12.681Z,95483.48
2018-07-20T03:33:42.015Z,95479.73
2018-07-20T03:36:11.400Z,95481.69
2018-07-20T03:38:40.800Z,95477.19
2018-07-20T03:41:10.195Z,95474.80
2018-07-20T03:43:39.529Z,95473.76
2018-07-20T03:46:08.865Z,95472.84
2018-07-20T03:48:38.236Z,95472.09
2018-07-20T03:51:07.850Z,95481.61
2018-07-20T03:53:37.233Z,95477.27
2018-07-20T03:56:06.825Z,95476.91
2018-07-20T03:58:36.201Z,95478.67
2018-07-20T04:01:05.589Z,95479.45
2018-07-20T04:03:36.039Z,95479.81
2018-07-20T04:06:05.350Z,95470.66
2018-07-20T04:08:34.726Z,95478.10
2018-07-20T04:11:04.082Z,95475.45
2018-07-20T04:13:33.493Z,95466.98
2018-07-20T04:16:03.278Z,95464.86
2018-07-20T04:18:32.672Z,95469.19
2018-07-20T04:21:02.073Z,95472.73
2018-07-20T04:23:31.557Z,95467.41
2018-07-20T04:26:01.290Z,95465.95
2018-07-20T04:28:30.717Z,95461.19
2018-07-20T04:31:00.168Z,95461.60
2018-07-20T04:33:29.640Z,95459.52
2018-07-20T04:36:00.285Z,95465.95
2018-07-20T04:38:29.722Z,95464.60
2018-07-20T04:40:59.205Z,95457.89
2018-07-20T04:43:28.737Z,95464.16
2018-07-20T04:45:58.172Z,95465.87
2018-07-20T04:48:27.638Z,95467.53
2018-07-20T04:50:56.766Z,95466.70
2018-07-20T04:53:26.331Z,95470.28
2018-07-20T04:55:55.974Z,95470.15
2018-07-20T04:58:25.546Z,95470.41
2018-07-20T05:00:55.689Z,95469.28
2018-07-20T05:03:25.092Z,95465.98
2018-07-20T05:05:54.553Z,95463.48
2018-07-20T05:08:24.290Z,95462.68
2018-07-20T05:10:53.705Z,95466.57
2018-07-20T05:13:23.086Z,95466.57
2018-07-20T05:15:52.589Z,95463.43
2018-07-20T05:18:21.937Z,95458.19
2018-07-20T05:20:51.341Z,95455.84
2018-07-20T05:23:20.796Z,95454.49
2018-07-20T05:25:50.207Z,95452.59
2018-07-20T05:28:20.659Z,95452.64
2018-07-20T05:30:50.109Z,95456.39
2018-07-20T05:33:19.854Z,95454.71
2018-07-20T05:35:50.338Z,95458.59
2018-07-20T05:38:19.716Z,95453.89
2018-07-20T05:40:49.191Z,95454.86
2018-07-20T05:43:19.569Z,95452.58
2018-07-20T05:45:48.965Z,95452.52
2018-07-20T05:48:18.111Z,95453.48
2018-07-20T05:50:47.598Z,95445.39
2018-07-20T05:53:17.054Z,95446.65
2018-07-20T05:55:46.497Z,95441.88
2018-07-20T05:58:15.929Z,95442.75
2018-07-20T06:00:45.332Z,95440.77
2018-07-20T06:03:14.839Z,95445.48
2018-07-20T06:05:44.351Z,95447.36
2018-07-20T06:08:13.886Z,95444.90
2018-07-20T06:10:43.733Z,95442.83
2018-07-20T06:13:13.113Z,95444.36
2018-07-20T06:15:42.553Z,95446.31
2018-07-20T06:18:12.023Z,95451.98
2018-07-20T06:20:41.479Z,95450.63
2018-07-20T06:26:10.730Z,95452.89
2018-07-20T06:28:40.081Z,95456.52
2018-07-20T06:31:09.450Z,95450.95
2018-07-20T06:33:39.012Z,95453.16
2018-07-20T06:36:08.481Z,95455.73
2018-07-20T06:38:37.814Z,95453.97
2018-07-20T06:41:07.184Z,95452.28
2018-07-20T06:43:36.604Z,95455.09
2018-07-20T06:46:06.007Z,95458.44
2018-07-20T06:48:35.401Z,95465.30
2018-07-20T06:51:04.785Z,95458.09
2018-07-20T06:53:34.177Z,95459.53
2018-07-20T06:56:03.573Z,95456.91
2018-07-20T06:58:33.067Z,95457.85
2018-07-20T07:01:02.401Z,95458.06
2018-07-20T07:03:31.754Z,95464.17
2018-07-20T07:06:01.173Z,95462.62
2018-07-20T07:08:30.631Z,95465.09
2018-07-20T07:11:00.070Z,95464.27
2018-07-20T07:13:29.524Z,95467.98
2018-07-20T07:15:58.957Z,95461.71
2018-07-20T07:18:28.349Z,95468.95
2018-07-20T07:20:57.815Z,95461.30
2018-07-20T07:23:27.251Z,95460.02
2018-07-20T07:25:56.765Z,95462.91
2018-07-20T07:28:26.258Z,95464.47
2018-07-20T07:30:56.438Z,95462.97
2018-07-20T07:33:26.300Z,95461.24
2018-07-20T07:35:56.808Z,95458.46
2018-07-20T07:38:26.361Z,95457.03
2018-07-20T07:40:55.844Z,95452.97
2018-07-20T07:43:25.417Z,95455.45
2018-07-20T07:45:54.885Z,95457.82
2018-07-20T07:48:24.440Z,95452.17
2018-07-20T07:50:54.169Z,95451.61
2018-07-20T07:53:23.586Z,95448.34
2018-07-20T07:55:52.968Z,95451.55
2018-07-20T07:58:22.468Z,95457.16
2018-07-20T08:00:51.870Z,95454.48
2018-07-20T08:03:21.235Z,95449.73
2018-07-20T08:05:50.614Z,95454.29
2018-07-20T08:08:19.963Z,95451.11
2018-07-20T08:10:49.350Z,95448.63
2018-07-20T08:13:18.739Z,95437.80
2018-07-20T08:15:48.314Z,95437.37
2018-07-20T08:18:17.823Z,95437.63
2018-07-20T08:20:47.550Z,95441.48
2018-07-20T08:23:16.956Z,95433.59
2018-07-20T08:25:46.362Z,95438.34
2018-07-20T08:28:15.822Z,95438.31
2018-07-20T08:30:48.546Z,95434.55
2018-07-20T08:33:17.700Z,95429.70
2018-07-20T08:35:47.144Z,95444.45
2018-07-20T08:38:16.506Z,95441.55
2018-07-20T08:40:45.942Z,95438.10
2018-07-20T08:43:15.298Z,95437.22
2018-07-20T08:45:44.685Z,95438.66
2018-07-20T08:48:14.105Z,95439.67
2018-07-20T08:50:44.480Z,95438.54
2018-07-20T08:53:14.083Z,95433.11
2018-07-20T08:55:43.587Z,95432.02
2018-07-20T08:58:13.202Z,95433.74
2018-07-20T09:00:42.553Z,95435.16
2018-07-20T09:03:11.950Z,95426.47
2018-07-20T09:05:41.314Z,95430.58
2018-07-20T09:08:11.648Z,95437.34
2018-07-20T09:10:41.125Z,95435.87
2018-07-20T09:13:10.603Z,95435.87
2018-07-20T09:15:39.983Z,95443.73
2018-07-20T09:18:09.532Z,95440.07
2018-07-20T09:20:38.964Z,95440.67
2018-07-20T09:23:08.367Z,95431.90
2018-07-20T09:25:37.949Z,95433.50
2018-07-20T09:28:07.334Z,95435.92
2018-07-20T09:30:36.719Z,95441.98
2018-07-20T09:33:06.889Z,95433.27
2018-07-20T09:35:36.699Z,95434.17
2018-07-20T09:38:06.225Z,95427.58
2018-07-20T09:40:35.613Z,95433.40
2018-07-20T09:43:05.028Z,95430.50
2018-07-20T09:45:34.349Z,95435.95
2018-07-20T09:48:04.440Z,95429.92
2018-07-20T09:50:33.814Z,95430.34
2018-07-20T09:53:03.186Z,95436.36
2018-07-20T09:55:32.541Z,95433.70
2018-07-20T09:58:01.692Z,95433.00
2018-07-20T10:00:36.351Z,95434.53
2018-07-20T10:03:05.990Z,95434.53
2018-07-20T10:05:35.369Z,95434.53
2018-07-20T10:08:04.756Z,95434.67
2018-07-20T10:10:34.154Z,95425.94
2018-07-20T10:13:03.510Z,95431.39
2018-07-20T10:15:32.992Z,95424.80
2018-07-20T10:18:02.315Z,95430.70
2018-07-20T10:20:31.887Z,95423.25
2018-07-20T10:23:01.848Z,95418.20
2018-07-20T10:25:31.355Z,95419.43
2018-07-20T10:28:00.741Z,95425.78
2018-07-20T10:30:30.334Z,95415.45
2018-07-20T10:32:59.706Z,95413.21
2018-07-20T10:35:29.187Z,95417.84
2018-07-20T10:37:58.653Z,95411.89
2018-07-20T10:40:28.673Z,95409.09
2018-07-20T10:42:59.328Z,95410.41
2018-07-20T10:45:28.964Z,95408.20
2018-07-20T10:47:58.445Z,95400.67
2018-07-20T10:50:27.945Z,95397.69
2018-07-20T10:52:57.392Z,95399.22
2018-07-20T10:55:26.836Z,95395.29
2018-07-20T10:57:56.282Z,95396.14
2018-07-20T11:00:27.090Z,95392.82
2018-07-20T11:02:56.595Z,95385.42
2018-07-20T11:05:26.075Z,95384.92
2018-07-20T11:07:57.425Z,95386.91
2018-07-20T11:10:27.153Z,95383.77
2018-07-20T11:12:56.777Z,95376.38
2018-07-20T11:15:28.784Z,95368.56
2018-07-20T11:17:58.239Z,95367.30
2018-07-20T11:20:27.716Z,95368.18
2018-07-20T11:22:57.456Z,95362.84
2018-07-20T11:25:27.126Z,95361.69
2018-07-20T11:27:56.840Z,95360.69
2018-07-20T11:30:26.252Z,95348.22
2018-07-20T11:32:55.707Z,95341.95
2018-07-20T11:35:25.147Z,95349.39
2018-07-20T11:37:56.764Z,95338.66
2018-07-20T11:40:26.179Z,95340.67
2018-07-20T11:42:55.668Z,95336.39
2018-07-20T11:45:25.359Z,95337.23
2018-07-20T11:47:54.841Z,95338.22
2018-07-20T11:50:24.293Z,95330.70
2018-07-20T11:52:53.688Z,95329.27
2018-07-20T11:55:23.193Z,95328.27
2018-07-20T11:57:53.115Z,95326.13
2018-07-20T12:00:22.655Z,95325.33
2018-07-20T12:02:52.074Z,95322.77
2018-07-20T12:05:21.565Z,95324.39
2018-07-20T12:07:51.147Z,95321.77
2018-07-20T12:10:20.471Z,95324.44
2018-07-20T12:12:49.927Z,95320.69
2018-07-20T12:15:19.289Z,95323.54
2018-07-20T12:17:48.449Z,95317.08
2018-07-20T12:20:17.805Z,95317.31
2018-07-20T12:22:47.207Z,95314.30
2018-07-20T12:25:16.610Z,95311.22
2018-07-20T12:27:46.031Z,95316.92
2018-07-20T12:30:15.497Z,95310.13
2018-07-20T12:32:45.179Z,95310.25
2018-07-20T12:35:14.946Z,95313.41
2018-07-20T12:37:44.514Z,95318.48
2018-07-20T12:40:14.054Z,95312.15
2018-07-20T12:42:43.483Z,95310.11
2018-07-20T12:45:12.853Z,95316.39
2018-07-20T12:47:42.258Z,95306.86
2018-07-20T12:50:11.831Z,95309.01
2018-07-20T12:52:41.200Z,95295.52
2018-07-20T12:55:10.605Z,95305.50
2018-07-20T12:57:40.005Z,95298.27
2018-07-20T13:00:09.378Z,95291.45
2018-07-20T13:02:38.753Z,95288.20
2018-07-20T13:05:08.123Z,95296.19
2018-07-20T13:07:37.583Z,95300.31
2018-07-20T13:10:09.090Z,95298.20
2018-07-20T13:12:38.458Z,95288.81
2018-07-20T13:15:07.809Z,95282.37
2018-07-20T13:17:37.285Z,95286.25
2018-07-20T13:20:07.053Z,95291.61
2018-07-20T13:22:36.469Z,95285.59
2018-07-20T13:25:05.910Z,95283.33
2018-07-20T13:27:35.362Z,95274.94
2018-07-20T13:30:06.178Z,95271.84
2018-07-20T13:32:35.573Z,95272.24
2018-07-20T13:35:06.375Z,95268.11
2018-07-20T13:37:35.947Z,95266.88
2018-07-20T13:40:05.769Z,95266.25
2018-07-20T13:42:35.172Z,95265.98
2018-07-20T13:45:04.710Z,95268.80
2018-07-20T13:47:33.993Z,95267.84
2018-07-20T13:50:03.964Z,95270.42
2018-07-20T13:52:33.542Z,95265.47
2018-07-20T13:55:02.883Z,95268.22
2018-07-20T13:57:32.215Z,95271.44
2018-07-20T14:00:01.601Z,95270.27
2018-07-20T14:02:30.976Z,95271.56
2018-07-20T14:05:00.357Z,95260.75
2018-07-20T14:07:29.762Z,95257.41
2018-07-20T14:09:59.177Z,95260.91
2018-07-20T14:12:28.817Z,95259.31
2018-07-20T14:14:58.285Z,95256.45
2018-07-20T14:17:27.859Z,95247.66
2018-07-20T14:19:57.270Z,95249.93
2018-07-20T14:22:26.645Z,95245.66
2018-07-20T14:24:56.106Z,95242.95
2018-07-20T14:27:25.621Z,95246.20
2018-07-20T14:29:55.875Z,95242.45
2018-07-20T14:32:25.298Z,95246.03
2018-07-20T14:34:55.744Z,95244.77
2018-07-20T14:37:25.197Z,95242.17
2018-07-20T14:39:54.717Z,95247.93
2018-07-20T14:42:24.109Z,95243.77
2018-07-20T14:44:56.392Z,95244.44
2018-07-20T14:47:26.137Z,95244.30
2018-07-20T14:49:55.592Z,95243.64
2018-07-20T14:52:25.139Z,95239.05
2018-07-20T14:54:54.633Z,95242.25
2018-07-20T14:57:24.105Z,95239.33
2018-07-20T14:59:55.343Z,95234.93
2018-07-20T15:02:24.845Z,95235.17
2018-07-20T15:04:54.186Z,95236.44
2018-07-20T15:07:23.690Z,95228.73
2018-07-20T15:09:53.079Z,95223.87
2018-07-20T15:12:23.402Z,95224.39
2018-07-20T15:14:52.767Z,95232.16
2018-07-20T15:17:22.199Z,95216.50
2018-07-20T15:19:51.542Z,95220.19
2018-07-20T15:22:20.925Z,95221.08
2018-07-20T15:24:50.349Z,95223.30
2018-07-20T15:27:19.769Z,95222.58
2018-07-20T15:29:49.125Z,95213.46
2018-07-20T15:32:18.467Z,95206.37
2018-07-20T15:34:47.799Z,95202.54
2018-07-20T15:37:17.190Z,95205.61
2018-07-20T15:39:46.695Z,95204.75
2018-07-20T15:42:16.027Z,95199.98
2018-07-20T15:44:45.507Z,95191.34
2018-07-20T15:47:14.977Z,95189.54
2018-07-20T15:49:44.457Z,95193.34
2018-07-20T15:54:43.261Z,95195.16
2018-07-20T15:57:12.582Z,95188.90
2018-07-20T15:59:42.013Z,95190.80
2018-07-20T16:02:11.361Z,95194.23
2018-07-20T16:04:40.745Z,95195.61
2018-07-20T16:07:10.208Z,95191.92
2018-07-20T16:09:39.657Z,95185.73
2018-07-20T16:12:09.046Z,95191.78
2018-07-20T16:14:38.388Z,95199.27
2018-07-20T16:17:07.792Z,95188.19
2018-07-20T16:19:37.270Z,95185.73
2018-07-20T16:22:06.739Z,95181.20
2018-07-20T16:24:36.387Z,95185.82
2018-07-20T16:27:06.097Z,95187.62
2018-07-20T16:29:35.525Z,95190.31
2018-07-20T16:32:04.888Z,95190.03
2018-07-20T16:34:34.563Z,95191.97
2018-07-20T16:37:03.962Z,95195.08
2018-07-20T16:39:33.564Z,95199.19
2018-07-20T16:42:02.957Z,95195.59
2018-07-20T16:44:32.309Z,95196.36
2018-07-20T16:47:01.710Z,95194.56
2018-07-20T16:49:31.162Z,95196.30
2018-07-20T16:52:00.619Z,95193.84
2018-07-20T16:54:30.051Z,95192.84
2018-07-20T16:56:59.510Z,95188.17
2018-07-20T16:59:29.070Z,95187.73
2018-07-20T17:01:58.533Z,95183.06
2018-07-20T17:04:28.043Z,95182.54
2018-07-20T17:06:57.480Z,95190.25
2018-07-20T17:09:27.212Z,95183.63
2018-07-20T17:11:56.609Z,95192.27
2018-07-20T17:14:26.011Z,95191.98
2018-07-20T17:16:55.364Z,95194.26
2018-07-20T17:19:24.737Z,95194.00
2018-07-20T17:21:54.138Z,95194.26
2018-07-20T17:24:23.354Z,95197.30
2018-07-20T17:26:52.736Z,95198.38
2018-07-20T17:29:22.161Z,95196.34
2018-07-20T17:31:51.601Z,95193.78
2018-07-20T17:34:21.183Z,95193.34
2018-07-20T17:36:50.585Z,95194.05
2018-07-20T17:39:20.059Z,95194.91
2018-07-20T17:41:49.557Z,95197.84
2018-07-20T17:44:18.924Z,95196.48
2018-07-20T17:46:48.322Z,95197.11
2018-07-20T17:49:17.637Z,95198.48
2018-07-20T17:51:47.067Z,95204.32
2018-07-20T17:54:17.646Z,95199.34
2018-07-20T17:56:47.160Z,95197.31
2018-07-20T17:59:16.524Z,95195.38
2018-07-20T18:01:45.961Z,95197.73
2018-07-20T18:04:15.500Z,95190.72
2018-07-20T18:06:45.099Z,95191.58
2018-07-20T18:09:14.448Z,95183.87
2018-07-20T18:11:43.866Z,95182.39
2018-07-20T18:14:13.301Z,95184.56
2018-07-20T18:16:42.669Z,95183.69
2018-07-20T18:19:12.088Z,95183.69
2018-07-20T18:21:42.021Z,95184.25
2018-07-20T18:24:11.566Z,95186.67
2018-07-20T18:26:40.909Z,95186.24
2018-07-20T18:29:10.370Z,95187.53
2018-07-20T18:31:39.772Z,95181.86
2018-07-20T18:34:09.238Z,95176.08
2018-07-20T18:36:38.845Z,95187.14
2018-07-20T18:39:11.469Z,95176.10
2018-07-20T18:41:41.518Z,95179.30
2018-07-20T18:44:11.335Z,95178.65
2018-07-20T18:46:40.838Z,95186.85
2018-07-20T18:49:10.418Z,95183.44
2018-07-20T18:51:39.745Z,95186.17
2018-07-20T18:54:09.283Z,95179.14
2018-07-20T18:56:38.883Z,95190.19
2018-07-20T18:59:08.222Z,95186.22
2018-07-20T19:01:37.569Z,95187.59
2018-07-20T19:04:07.102Z,95182.69
2018-07-20T19:06:36.423Z,95174.61
2018-07-20T19:09:09.277Z,95172.69
2018-07-20T19:11:38.730Z,95177.14
2018-07-20T19:14:08.124Z,95174.41
2018-07-20T19:16:37.661Z,95172.37
2018-07-20T19:19:07.316Z,95171.88
2018-07-20T19:21:36.614Z,95167.22
2018-07-20T19:24:06.134Z,95169.62
2018-07-20T19:26:35.497Z,95169.83
2018-07-20T19:29:09.371Z,95165.52
2018-07-20T19:31:38.673Z,95174.16
2018-07-20T19:34:08.367Z,95170.70
2018-07-20T19:36:37.713Z,95164.80
2018-07-20T19:39:10.131Z,95171.06
2018-07-20T19:41:39.557Z,95170.27
2018-07-20T19:44:09.036Z,95175.52
2018-07-20T19:46:38.424Z,95175.73
2018-07-20T19:49:08.457Z,95176.89
2018-07-20T19:51:38.166Z,95180.98
2018-07-20T19:54:07.552Z,95184.49
2018-07-20T19:56:36.945Z,95183.48
2018-07-20T19:59:06.473Z,95193.41
2018-07-20T20:01:35.856Z,95193.30
2018-07-20T20:04:05.850Z,95206.31
2018-07-20T20:06:35.231Z,95216.80
2018-07-20T20:09:08.029Z,95220.86
2018-07-20T20:11:37.554Z,95216.41
2018-07-20T20:14:06.965Z,95222.35
2018-07-20T20:16:36.976Z,95224.64
2018-07-20T20:19:06.441Z,95234.44
2018-07-20T20:21:35.958Z,95235.09
2018-07-20T20:24:05.389Z,95242.23
2018-07-20T20:26:35.097Z,95240.38
2018-07-20T20:29:04.537Z,95242.22
2018-07-20T20:31:33.996Z,95258.52
2018-07-20T20:34:03.652Z,95262.03
2018-07-20T20:36:33.139Z,95263.02
2018-07-20T20:39:02.258Z,95284.87
2018-07-20T20:41:31.944Z,95301.26
2018-07-20T20:44:01.436Z,95276.11
2018-07-20T20:46:30.757Z,95255.66
2018-07-20T20:49:00.099Z,95268.46
2018-07-20T20:51:29.594Z,95266.91
2018-07-20T20:53:58.895Z,95274.35
2018-07-20T20:56:28.289Z,95279.93
2018-07-20T20:58:58.189Z,95269.59
2018-07-20T21:01:27.631Z,95271.05
2018-07-20T21:03:57.077Z,95282.11
2018-07-20T21:06:26.594Z,95294.31
2018-07-20T21:08:56.054Z,95306.34
2018-07-20T21:11:25.419Z,95305.41
2018-07-20T21:13:54.825Z,95320.48
2018-07-20T21:16:24.458Z,95328.86
2018-07-20T21:18:53.935Z,95326.33
2018-07-20T21:21:23.262Z,95323.63
2018-07-20T21:23:52.768Z,95331.67
2018-07-20T21:26:22.126Z,95332.51
2018-07-20T21:28:51.473Z,95331.77
2018-07-20T21:31:21.217Z,95326.33
2018-07-20T21:33:50.564Z,95321.00
2018-07-20T21:36:20.014Z,95320.02
2018-07-20T21:38:49.393Z,95311.85
2018-07-20T21:41:18.741Z,95313.86
2018-07-20T21:43:47.839Z,95318.47
2018-07-20T21:46:18.149Z,95315.03
2018-07-20T21:48:47.583Z,95321.27
2018-07-20T21:51:16.913Z,95315.96
2018-07-20T21:53:46.272Z,95319.45
2018-07-20T21:56:15.619Z,95326.22
2018-07-20T21:58:44.973Z,95324.03
2018-07-20T22:01:14.321Z,95325.21
2018-07-20T22:03:43.674Z,95322.53
2018-07-20T22:06:13.042Z,95321.95
2018-07-20T22:08:42.542Z,95325.47
2018-07-20T22:11:11.967Z,95323.48
2018-07-20T22:13:41.307Z,95320.64
2018-07-20T22:16:10.733Z,95316.10
2018-07-20T22:18:40.390Z,95320.48
2018-07-20T22:21:09.754Z,95311.41
2018-07-20T22:23:39.144Z,95305.64
2018-07-20T22:26:08.498Z,95297.44
2018-07-20T22:28:37.876Z,95295.84
2018-07-20T22:31:07.765Z,95292.25
2018-07-20T22:33:37.204Z,95281.79
2018-07-20T22:36:06.810Z,95275.22
2018-07-20T22:38:36.181Z,95273.86
2018-07-20T22:41:05.522Z,95277.80
2018-07-20T22:43:35.140Z,95273.11
2018-07-20T22:46:04.525Z,95269.75
2018-07-20T22:48:33.956Z,95258.26
2018-07-20T22:51:03.328Z,95246.67
2018-07-20T22:53:32.703Z,95250.14
2018-07-20T22:56:02.743Z,95246.83
2018-07-20T22:58:36.509Z,95238.47
2018-07-20T23:01:06.363Z,95236.72
2018-07-20T23:03:35.747Z,95243.19
2018-07-20T23:06:05.121Z,95228.98
2018-07-20T23:08:34.486Z,95236.18
2018-07-20T23:11:03.903Z,95231.73
2018-07-20T23:13:33.261Z,95230.77
2018-07-20T23:16:02.649Z,95229.75
2018-07-20T23:18:31.742Z,95223.03
2018-07-20T23:21:00.968Z,95226.62
2018-07-20T23:23:30.355Z,95228.20
2018-07-20T23:25:59.735Z,95221.13
2018-07-20T23:28:29.164Z,95216.55
2018-07-20T23:30:58.570Z,95210.41
2018-07-20T23:33:27.965Z,95212.72
2018-07-20T23:35:57.367Z,95212.25
2018-07-20T23:38:26.727Z,95210.26
2018-07-20T23:40:56.089Z,95199.63
2018-07-20T23:43:25.481Z,95194.53
2018-07-20T23:45:54.909Z,95196.03
2018-07-20T23:48:24.322Z,95192.27
2018-07-20T23:50:53.698Z,95193.68
2018-07-20T23:53:23.058Z,95192.95
2018-07-20T23:55:52.362Z,95190.91
2018-07-20T23:58:21.797Z,95192.12
